createdAt,value
2023-02-15T00:00:42.196Z,4.37
2023-02-15T00:03:32.250Z,4.23
2023-02-15T00:06:03.470Z,4.14
2023-02-15T00:08:35.331Z,4.00
2023-02-15T00:11:10.037Z,3.85
2023-02-15T00:13:45.972Z,3.74
2023-02-15T00:16:16.717Z,3.65
2023-02-15T00:18:48.300Z,3.60
2023-02-15T00:21:19.301Z,3.55
2023-02-15T00:23:50.330Z,3.54
2023-02-15T00:26:21.182Z,3.55
2023-02-15T00:28:51.874Z,3.58
2023-02-15T00:31:23.032Z,3.61
2023-02-15T00:33:53.985Z,3.64
2023-02-15T00:36:25.274Z,3.57
2023-02-15T00:38:56.068Z,3.49
2023-02-15T00:41:26.836Z,3.46
2023-02-15T00:43:58.261Z,3.48
2023-02-15T00:46:29.242Z,3.51
2023-02-15T00:49:00.447Z,3.50
2023-02-15T00:51:31.354Z,3.51
2023-02-15T00:54:02.296Z,3.49
2023-02-15T00:56:33.458Z,3.44
2023-02-15T00:59:05.398Z,3.41
2023-02-15T01:01:36.553Z,3.39
2023-02-15T01:04:07.582Z,3.39
2023-02-15T01:06:38.725Z,3.37
2023-02-15T01:09:10.344Z,3.37
2023-02-15T01:11:41.637Z,3.35
2023-02-15T01:14:14.235Z,3.32
2023-02-15T01:16:44.925Z,3.31
2023-02-15T01:19:16.316Z,3.29
2023-02-15T01:21:47.129Z,3.28
2023-02-15T01:24:18.318Z,3.29
2023-02-15T01:26:49.126Z,3.31
2023-02-15T01:29:20.308Z,3.26
2023-02-15T01:31:51.292Z,3.18
2023-02-15T01:34:22.014Z,3.17
2023-02-15T01:36:53.967Z,3.17
2023-02-15T01:39:25.416Z,3.17
2023-02-15T01:41:56.292Z,3.17
2023-02-15T01:44:43.823Z,3.19
2023-02-15T01:47:15.045Z,3.21
2023-02-15T01:49:46.398Z,3.22
2023-02-15T01:52:18.979Z,3.17
2023-02-15T01:54:50.876Z,3.17
2023-02-15T01:57:26.027Z,3.19
2023-02-15T01:59:58.444Z,3.20
2023-02-15T02:02:30.124Z,3.21
2023-02-15T02:05:04.943Z,3.19
2023-02-15T02:07:38.486Z,3.19
2023-02-15T02:10:11.686Z,3.18
2023-02-15T02:12:43.108Z,3.18
2023-02-15T02:15:15.697Z,3.16
2023-02-15T02:17:50.563Z,3.12
2023-02-15T02:20:25.625Z,3.11
2023-02-15T02:23:04.108Z,3.13
2023-02-15T02:25:46.659Z,3.14
2023-02-15T02:28:23.019Z,3.17
2023-02-15T02:31:00.550Z,3.14
2023-02-15T02:33:34.046Z,3.15
2023-02-15T02:36:08.634Z,3.14
2023-02-15T02:38:43.800Z,3.15
2023-02-15T02:41:20.433Z,3.13
2023-02-15T02:43:54.182Z,3.10
2023-02-15T02:46:27.733Z,3.05
2023-02-15T02:56:04.420Z,3.00
2023-02-15T02:58:36.218Z,2.96
2023-02-15T03:01:08.154Z,2.92
2023-02-15T03:03:39.225Z,2.87
2023-02-15T03:06:10.734Z,2.85
2023-02-15T03:08:42.690Z,2.83
2023-02-15T03:11:13.560Z,2.80
2023-02-15T03:13:44.504Z,2.77
2023-02-15T03:16:30.817Z,2.74
2023-02-15T03:19:02.942Z,2.71
2023-02-15T03:21:35.304Z,2.69
2023-02-15T03:24:08.365Z,2.65
2023-02-15T03:26:39.311Z,2.63
2023-02-15T03:29:10.221Z,2.61
2023-02-15T03:31:41.910Z,2.59
2023-02-15T03:34:13.768Z,2.58
2023-02-15T03:36:46.480Z,2.57
2023-02-15T03:39:20.106Z,2.52
2023-02-15T03:41:52.588Z,2.46
2023-02-15T03:44:25.838Z,2.41
2023-02-15T03:46:57.527Z,2.39
2023-02-15T03:49:29.210Z,2.40
2023-02-15T03:52:02.436Z,2.39
2023-02-15T03:54:47.720Z,2.36
2023-02-15T03:57:37.924Z,2.33
2023-02-15T04:00:29.933Z,2.34
2023-02-15T04:03:12.176Z,2.34
2023-02-15T04:05:43.258Z,2.34
2023-02-15T04:08:14.296Z,2.32
2023-02-15T04:10:57.508Z,2.31
2023-02-15T04:13:32.224Z,2.29
2023-02-15T04:16:07.368Z,2.30
2023-02-15T04:18:57.583Z,2.31
2023-02-15T04:21:46.552Z,2.31
2023-02-15T04:24:35.133Z,2.28
2023-02-15T04:32:22.934Z,2.24
2023-02-15T04:34:54.011Z,2.21
2023-02-15T04:37:28.076Z,2.19
2023-02-15T04:39:59.588Z,2.17
2023-02-15T04:42:30.635Z,2.13
2023-02-15T04:45:01.625Z,2.11
2023-02-15T04:47:32.662Z,2.11
2023-02-15T04:50:03.413Z,2.10
2023-02-15T04:52:34.248Z,2.07
2023-02-15T04:55:07.092Z,2.05
2023-02-15T04:57:37.854Z,2.06
2023-02-15T05:00:10.807Z,2.07
2023-02-15T05:02:41.726Z,2.07
2023-02-15T05:05:14.103Z,2.06
2023-02-15T05:07:44.963Z,2.06
2023-02-15T05:10:16.023Z,2.04
2023-02-15T05:12:47.151Z,2.02
2023-02-15T05:15:17.949Z,2.01
2023-02-15T05:17:48.994Z,2.00
2023-02-15T05:20:20.666Z,1.99
2023-02-15T05:22:51.601Z,1.96
2023-02-15T05:25:39.959Z,1.91
2023-02-15T05:28:24.335Z,1.89
2023-02-15T05:31:02.096Z,1.89
2023-02-15T05:33:33.751Z,1.92
2023-02-15T05:36:05.452Z,1.94
2023-02-15T05:38:38.047Z,1.93
2023-02-15T05:41:09.230Z,1.91
2023-02-15T05:43:40.359Z,1.90
2023-02-15T05:46:11.493Z,1.92
2023-02-15T05:48:42.321Z,1.95
2023-02-15T05:51:16.028Z,1.99
2023-02-15T05:53:47.098Z,2.03
2023-02-15T05:56:17.965Z,2.07
2023-02-15T05:58:49.189Z,2.12
2023-02-15T06:01:22.936Z,2.12
2023-02-15T06:03:55.300Z,2.12
2023-02-15T06:06:26.074Z,2.16
2023-02-15T06:08:56.846Z,2.21
2023-02-15T06:11:27.652Z,2.23
2023-02-15T06:13:58.494Z,2.27
2023-02-15T06:16:29.339Z,2.28
2023-02-15T06:19:02.336Z,2.27
2023-02-15T06:21:33.238Z,2.26
2023-02-15T06:24:04.021Z,2.27
2023-02-15T06:26:34.972Z,2.28
2023-02-15T06:29:06.029Z,2.33
2023-02-15T06:31:37.061Z,2.40
2023-02-15T06:34:08.791Z,2.49
2023-02-15T06:36:39.634Z,2.57
2023-02-15T06:39:10.523Z,2.66
2023-02-15T06:41:41.278Z,2.73
2023-02-15T06:44:12.006Z,2.81
2023-02-15T06:46:42.673Z,2.88
2023-02-15T06:49:13.867Z,2.95
2023-02-15T06:51:44.653Z,3.00
2023-02-15T06:54:15.503Z,3.06
2023-02-15T06:56:46.241Z,3.11
2023-02-15T06:59:17.034Z,3.15
2023-02-15T07:01:48.050Z,3.19
2023-02-15T07:04:18.963Z,3.26
2023-02-15T07:06:52.648Z,3.33
2023-02-15T07:09:24.628Z,3.40
2023-02-15T07:12:13.232Z,3.46
2023-02-15T07:14:44.164Z,3.54
2023-02-15T07:17:35.151Z,3.61
2023-02-15T07:20:06.242Z,3.69
2023-02-15T07:22:37.381Z,3.78
2023-02-15T07:25:09.963Z,3.86
2023-02-15T07:27:41.036Z,3.91
2023-02-15T07:30:13.983Z,3.98
2023-02-15T07:32:58.648Z,4.04
2023-02-15T07:35:29.676Z,4.08
2023-02-15T07:38:00.743Z,4.14
2023-02-15T07:40:31.639Z,4.18
2023-02-15T07:43:02.564Z,4.22
2023-02-15T07:45:33.483Z,4.23
2023-02-15T07:48:04.288Z,4.26
2023-02-15T07:50:35.570Z,4.29
2023-02-15T07:53:06.633Z,4.32
2023-02-15T07:55:37.570Z,4.34
2023-02-15T07:58:08.613Z,4.37
2023-02-15T08:00:53.456Z,4.39
2023-02-15T08:03:27.912Z,4.41
2023-02-15T08:06:00.611Z,4.43
2023-02-15T08:08:34.482Z,4.44
2023-02-15T08:11:23.587Z,4.46
2023-02-15T08:14:00.448Z,4.49
2023-02-15T08:16:32.368Z,4.54
2023-02-15T08:19:03.876Z,4.60
2023-02-15T08:21:35.193Z,4.64
2023-02-15T08:24:06.750Z,4.70
2023-02-15T08:26:38.314Z,4.79
2023-02-15T08:29:11.578Z,4.87
2023-02-15T08:31:42.844Z,4.97
2023-02-15T08:34:15.661Z,5.05
2023-02-15T08:36:47.435Z,5.14
2023-02-15T08:39:18.220Z,5.24
2023-02-15T08:41:49.514Z,5.32
2023-02-15T08:44:20.810Z,5.40
2023-02-15T08:46:51.708Z,5.47
2023-02-15T08:49:23.306Z,5.54
2023-02-15T08:51:54.150Z,5.57
2023-02-15T08:54:25.001Z,5.62
2023-02-15T08:56:56.014Z,5.67
2023-02-15T08:59:28.136Z,5.75
2023-02-15T09:01:59.661Z,5.83
2023-02-15T09:04:30.632Z,5.91
2023-02-15T09:12:18.096Z,6.18
2023-02-15T09:14:48.868Z,6.25
2023-02-15T09:17:19.933Z,6.33
2023-02-15T09:19:51.089Z,6.43
2023-02-15T09:22:21.905Z,6.52
2023-02-15T09:24:52.631Z,6.58
2023-02-15T09:27:23.609Z,6.63
2023-02-15T09:29:55.576Z,6.67
2023-02-15T09:32:26.561Z,6.75
2023-02-15T09:34:57.502Z,6.89
2023-02-15T09:37:28.504Z,6.99
2023-02-15T09:39:59.377Z,7.08
2023-02-15T09:42:43.584Z,7.19
2023-02-15T09:45:19.197Z,7.23
2023-02-15T09:47:55.499Z,7.27
2023-02-15T09:50:28.113Z,7.37
2023-02-15T09:53:06.549Z,7.45
2023-02-15T09:55:40.915Z,7.53
2023-02-15T09:58:13.913Z,7.67
2023-02-15T10:00:49.105Z,7.85
2023-02-15T10:03:26.773Z,8.16
2023-02-15T10:06:01.056Z,8.56
2023-02-15T10:08:54.788Z,8.94
2023-02-15T10:11:41.543Z,9.41
2023-02-15T10:14:15.921Z,9.97
2023-02-15T10:16:48.527Z,10.28
2023-02-15T10:19:20.746Z,10.35
2023-02-15T10:21:55.583Z,10.47
2023-02-15T10:24:33.027Z,10.76
2023-02-15T10:27:08.580Z,11.25
2023-02-15T10:29:39.729Z,11.74
2023-02-15T10:32:15.977Z,12.21
2023-02-15T10:34:49.280Z,12.67
2023-02-15T10:37:39.507Z,13.05
2023-02-15T10:40:13.014Z,13.37
2023-02-15T10:42:46.908Z,13.62
2023-02-15T10:45:21.581Z,13.73
2023-02-15T10:47:55.627Z,13.86
2023-02-15T10:50:48.997Z,14.05
2023-02-15T10:53:23.974Z,14.22
2023-02-15T10:55:57.412Z,14.49
2023-02-15T10:58:31.978Z,14.77
2023-02-15T11:01:05.710Z,14.78
2023-02-15T11:03:42.485Z,14.88
2023-02-15T11:06:14.473Z,14.99
2023-02-15T11:08:45.631Z,14.97
2023-02-15T11:11:17.585Z,14.88
2023-02-15T11:13:49.499Z,15.02
2023-02-15T11:16:21.539Z,15.23
2023-02-15T11:18:52.653Z,15.49
2023-02-15T11:21:25.074Z,15.53
2023-02-15T11:23:55.931Z,15.44
2023-02-15T11:26:30.039Z,15.46
2023-02-15T11:29:01.538Z,15.21
2023-02-15T11:31:35.643Z,15.04
2023-02-15T11:34:07.462Z,14.99
2023-02-15T11:36:38.722Z,15.18
2023-02-15T11:39:12.123Z,15.25
2023-02-15T11:41:45.286Z,15.36
2023-02-15T11:44:17.497Z,15.37
2023-02-15T11:46:48.323Z,15.04
2023-02-15T11:49:22.474Z,14.83
2023-02-15T11:51:53.487Z,14.85
2023-02-15T11:54:26.164Z,14.98
2023-02-15T11:56:57.130Z,15.19
2023-02-15T11:59:29.748Z,15.48
2023-02-15T12:02:00.521Z,15.80
2023-02-15T12:04:32.805Z,16.05
2023-02-15T12:07:04.634Z,16.14
2023-02-15T12:09:36.665Z,16.29
2023-02-15T12:12:26.955Z,16.30
2023-02-15T12:18:50.172Z,16.29
2023-02-15T12:21:28.120Z,16.27
2023-02-15T12:23:59.864Z,16.46
2023-02-15T12:26:31.445Z,16.55
2023-02-15T12:29:03.873Z,16.39
2023-02-15T12:31:36.921Z,16.16
2023-02-15T12:34:10.448Z,16.25
2023-02-15T12:36:47.709Z,16.33
2023-02-15T12:39:28.701Z,16.45
2023-02-15T12:42:07.688Z,16.58
2023-02-15T12:44:38.711Z,16.66
2023-02-15T12:47:20.275Z,16.57
2023-02-15T12:50:12.254Z,16.39
2023-02-15T12:52:43.848Z,16.06
2023-02-15T12:55:20.834Z,15.91
2023-02-15T12:57:52.619Z,16.12
2023-02-15T13:00:33.193Z,16.30
2023-02-15T13:03:04.110Z,16.03
2023-02-15T13:05:36.440Z,15.78
2023-02-15T13:08:13.004Z,15.80
2023-02-15T13:10:44.917Z,16.03
2023-02-15T13:13:21.820Z,16.09
2023-02-15T13:15:53.797Z,16.02
2023-02-15T13:18:26.098Z,15.77
2023-02-15T13:20:56.854Z,15.62
2023-02-15T13:23:29.838Z,15.66
2023-02-15T13:26:01.543Z,15.74
2023-02-15T13:28:34.548Z,15.83
2023-02-15T13:31:06.200Z,15.83
2023-02-15T13:33:37.801Z,15.74
2023-02-15T13:36:11.120Z,15.87
2023-02-15T13:38:46.459Z,15.96
2023-02-15T13:41:18.171Z,16.00
2023-02-15T13:43:51.954Z,15.91
2023-02-15T13:46:24.962Z,16.03
2023-02-15T13:48:57.968Z,16.07
2023-02-15T13:51:29.834Z,15.89
2023-02-15T13:54:03.653Z,15.73
2023-02-15T13:56:38.058Z,15.48
2023-02-15T13:59:19.869Z,15.54
2023-02-15T14:01:52.505Z,15.62
2023-02-15T14:04:32.047Z,15.64
2023-02-15T14:07:06.935Z,15.41
2023-02-15T14:09:42.569Z,15.15
2023-02-15T14:12:18.769Z,15.02
2023-02-15T14:14:54.302Z,14.92
2023-02-15T14:17:25.886Z,14.82
2023-02-15T14:19:56.932Z,14.81
2023-02-15T14:22:31.204Z,14.69
2023-02-15T14:25:18.222Z,14.46
2023-02-15T14:27:55.834Z,14.20
2023-02-15T14:30:31.201Z,13.99
2023-02-15T14:33:03.637Z,13.86
2023-02-15T14:35:34.450Z,13.68
2023-02-15T14:38:06.907Z,13.58
2023-02-15T14:40:57.080Z,13.47
2023-02-15T14:43:30.021Z,13.26
2023-02-15T14:46:01.549Z,13.15
2023-02-15T14:48:33.324Z,13.10
2023-02-15T14:51:04.600Z,12.88
2023-02-15T14:53:39.834Z,12.57
2023-02-15T14:56:26.401Z,12.42
2023-02-15T14:59:14.154Z,12.28
2023-02-15T15:01:45.121Z,12.13
2023-02-15T15:04:16.589Z,11.99
2023-02-15T15:06:47.348Z,11.89
2023-02-15T15:09:21.636Z,11.71
2023-02-15T15:11:53.244Z,11.56
2023-02-15T15:14:43.316Z,11.49
2023-02-15T15:17:15.359Z,11.44
2023-02-15T15:20:08.509Z,11.32
2023-02-15T15:22:39.351Z,11.18
2023-02-15T15:25:14.831Z,11.14
2023-02-15T15:27:52.023Z,11.07
2023-02-15T15:30:40.895Z,11.00
2023-02-15T15:33:14.237Z,10.92
2023-02-15T15:35:53.699Z,10.82
2023-02-15T15:38:29.176Z,10.74
2023-02-15T15:41:22.027Z,10.68
2023-02-15T15:43:57.884Z,10.62
2023-02-15T15:46:41.324Z,10.66
2023-02-15T15:49:13.136Z,10.74
2023-02-15T15:51:44.307Z,10.78
2023-02-15T15:54:17.324Z,10.80
2023-02-15T15:56:49.050Z,10.76
2023-02-15T15:59:21.275Z,10.71
2023-02-15T16:01:52.375Z,10.70
2023-02-15T16:04:27.862Z,10.68
2023-02-15T16:06:58.785Z,10.66
2023-02-15T16:09:29.622Z,10.66
2023-02-15T16:12:02.813Z,10.63
2023-02-15T16:14:34.566Z,10.58
2023-02-15T16:17:07.001Z,10.52
2023-02-15T16:19:38.152Z,10.46
2023-02-15T16:22:11.862Z,10.39
2023-02-15T16:24:53.523Z,10.31
2023-02-15T16:27:37.643Z,10.26
2023-02-15T16:34:00.481Z,10.09
2023-02-15T16:36:31.538Z,10.06
2023-02-15T16:39:14.763Z,10.03
2023-02-15T16:41:47.212Z,9.99
2023-02-15T16:44:20.959Z,9.96
2023-02-15T16:46:52.525Z,9.90
2023-02-15T16:49:24.099Z,9.83
2023-02-15T16:51:57.823Z,9.76
2023-02-15T16:54:28.798Z,9.68
2023-02-15T16:57:05.356Z,9.61
2023-02-15T16:59:37.731Z,9.56
2023-02-15T17:02:14.528Z,9.49
2023-02-15T17:04:49.901Z,9.42
2023-02-15T17:07:21.382Z,9.40
2023-02-15T17:09:53.328Z,9.38
2023-02-15T17:12:41.511Z,9.35
2023-02-15T17:15:20.815Z,9.30
2023-02-15T17:17:51.775Z,9.27
2023-02-15T17:20:23.221Z,9.24
2023-02-15T17:22:54.589Z,9.20
2023-02-15T17:25:28.561Z,9.13
2023-02-15T17:28:00.823Z,9.08
2023-02-15T17:30:37.143Z,9.04
2023-02-15T17:33:30.228Z,9.00
2023-02-15T17:36:11.818Z,8.90
2023-02-15T17:38:43.223Z,8.84
2023-02-15T17:41:14.239Z,8.78
2023-02-15T17:43:45.144Z,8.73
2023-02-15T17:46:19.597Z,8.69
2023-02-15T17:48:51.519Z,8.64
2023-02-15T17:51:22.633Z,8.62
2023-02-15T17:54:10.809Z,8.60
2023-02-15T17:56:44.650Z,8.54
2023-02-15T17:59:15.617Z,8.48
2023-02-15T18:02:05.043Z,8.43
2023-02-15T18:04:53.618Z,8.38
2023-02-15T18:07:42.711Z,8.33
2023-02-15T18:10:33.577Z,8.28
2023-02-15T18:13:04.814Z,8.25
2023-02-15T18:15:37.127Z,8.22
2023-02-15T18:18:12.833Z,8.18
2023-02-15T18:20:48.868Z,8.12
2023-02-15T18:23:21.670Z,8.06
2023-02-15T18:26:10.069Z,7.99
2023-02-15T18:28:49.633Z,7.94
2023-02-15T18:31:27.966Z,7.88
2023-02-15T18:34:00.559Z,7.83
2023-02-15T18:36:42.934Z,7.77
2023-02-15T18:39:23.502Z,7.74
2023-02-15T18:42:20.439Z,7.71
2023-02-15T18:44:54.812Z,7.64
2023-02-15T18:47:29.865Z,7.54
2023-02-15T18:50:03.522Z,7.35
2023-02-15T18:52:38.954Z,7.32
2023-02-15T18:55:21.969Z,7.28
2023-02-15T18:57:57.814Z,7.24
2023-02-15T19:00:30.392Z,7.22
2023-02-15T19:03:04.598Z,7.21
2023-02-15T19:05:36.127Z,7.21
2023-02-15T19:08:14.192Z,7.20
2023-02-15T19:10:45.639Z,7.17
2023-02-15T19:13:18.187Z,7.15
2023-02-15T19:15:53.588Z,7.10
2023-02-15T19:18:24.427Z,7.07
2023-02-15T19:20:55.283Z,7.07
2023-02-15T19:23:27.537Z,7.07
2023-02-15T19:25:58.509Z,7.05
2023-02-15T19:28:32.682Z,6.98
2023-02-15T19:31:03.892Z,6.94
2023-02-15T19:33:35.061Z,6.90
2023-02-15T19:36:06.903Z,6.89
2023-02-15T19:38:38.638Z,6.90
2023-02-15T19:41:11.151Z,6.89
2023-02-15T19:43:46.054Z,6.86
2023-02-15T19:46:21.333Z,6.83
2023-02-15T19:49:13.745Z,6.83
2023-02-15T19:51:53.832Z,6.77
2023-02-15T19:54:33.578Z,6.74
2023-02-15T19:57:06.208Z,6.72
2023-02-15T19:59:38.087Z,6.70
2023-02-15T20:02:11.996Z,6.69
2023-02-15T20:04:43.519Z,6.66
2023-02-15T20:07:18.465Z,6.62
2023-02-15T20:09:52.777Z,6.57
2023-02-15T20:12:24.616Z,6.52
2023-02-15T20:14:56.825Z,6.48
2023-02-15T20:17:28.367Z,6.46
2023-02-15T20:20:03.841Z,6.45
2023-02-15T20:22:43.859Z,6.43
2023-02-15T20:25:17.009Z,6.40
2023-02-15T20:31:02.811Z,6.35
2023-02-15T20:40:22.740Z,6.20
2023-02-15T20:43:18.110Z,6.20
2023-02-15T20:46:11.862Z,6.19
2023-02-15T20:48:45.440Z,6.19
2023-02-15T21:05:59.502Z,6.13
2023-02-15T21:08:43.830Z,6.07
2023-02-15T21:15:07.062Z,5.99
2023-02-15T21:18:31.926Z,5.83
2023-02-15T21:21:54.422Z,5.78
2023-02-15T21:28:07.015Z,5.87
2023-02-15T21:28:08.536Z,5.79
2023-02-15T21:33:44.895Z,5.83
2023-02-15T21:36:17.284Z,5.80
2023-02-15T21:38:48.454Z,5.69
2023-02-15T21:41:37.844Z,5.60
2023-02-15T21:44:33.024Z,5.58
2023-02-15T21:47:23.728Z,5.58
2023-02-15T21:49:56.216Z,5.59
2023-02-15T22:00:42.359Z,5.55
2023-02-15T22:03:21.943Z,5.51
2023-02-15T22:06:05.734Z,5.46
2023-02-15T22:11:53.582Z,5.48
2023-02-15T22:14:32.423Z,5.47
2023-02-15T22:17:03.314Z,5.46
2023-02-15T22:19:34.168Z,5.45
2023-02-15T22:22:08.993Z,5.43
2023-02-15T22:24:40.050Z,5.36
2023-02-15T22:27:13.488Z,5.32
2023-02-15T22:29:44.298Z,5.27
2023-02-15T22:32:18.542Z,5.25
2023-02-15T22:34:49.571Z,5.26
2023-02-15T22:37:20.463Z,5.26
2023-02-15T22:39:51.288Z,5.24
2023-02-15T22:42:25.873Z,5.23
2023-02-15T22:44:57.254Z,5.21
2023-02-15T22:47:28.570Z,5.19
2023-02-15T22:49:59.432Z,5.17
2023-02-15T22:52:30.337Z,5.17
2023-02-15T22:55:04.331Z,5.13
2023-02-15T22:57:35.293Z,5.12
2023-02-15T23:00:09.507Z,5.10
2023-02-15T23:02:40.382Z,5.09
2023-02-15T23:05:15.794Z,5.08
2023-02-15T23:07:46.799Z,5.07
2023-02-15T23:10:24.330Z,5.05
2023-02-15T23:13:13.478Z,5.03
2023-02-15T23:15:45.150Z,5.01
2023-02-15T23:18:20.218Z,5.00
2023-02-15T23:20:52.405Z,4.98
2023-02-15T23:27:47.613Z,4.93
2023-02-15T23:30:18.325Z,4.89
2023-02-15T23:32:49.199Z,4.86
2023-02-15T23:35:20.659Z,4.83
2023-02-15T23:37:51.586Z,4.82
2023-02-15T23:40:41.096Z,4.79
2023-02-15T23:43:13.430Z,4.75
2023-02-15T23:45:44.339Z,4.72
2023-02-15T23:48:31.483Z,4.69
2023-02-15T23:51:02.850Z,4.66
2023-02-15T23:53:34.012Z,4.65
2023-02-15T23:56:05.119Z,4.64
2023-02-15T23:58:41.302Z,4.62
